MSC Nuria — 3ESE2 — position and weather

sailwx.info

Track history (hours):
 
Tides and Currents Weather Stations Pressure Air Temp Water Temp Dewpoint Dewpoint Depression Visibility Wind Speed Wind Dir Waves Ship Positions

MSC Nuria

Last reported at 2014-Nov-22 16:34 UTC. Time now 2014-Nov-22 16:42 UTC.
Position N 51°25' E 003°42'.

Length 275 m; draft 10 m.

Type: Ship (hazmat cat A). MMSI: 370272977.

Date/timePositionNaut miles runAvg speedWind from/ knotsBaromVisibWave heightAir tempDewpointWater temp
2014-Nov-22 16:34N 51°25' E 003°42'8 8.4
2014-Nov-22 15:33N 51°25' E 003°29'1515.3
2014-Nov-22 14:34N 51°24' E 003°04'1212.1
2014-Nov-22 13:34N 51°36' E 003°10'1211.7
2014-Nov-22 12:33N 51°47' E 003°15'1312.6
2014-Nov-22 11:33N 51°59' E 003°20'1110.8
2014-Nov-22 10:33N 52°10' E 003°23'6 5.9
2014-Nov-22 09:33N 52°16' E 003°25'7 6.2
2014-Nov-22 08:25N 52°23' E 003°26'6 6.1
2014-Nov-22 07:29N 52°28' E 003°28'7 7.8
2014-Nov-22 06:33N 52°36' E 003°30'8 8.3
2014-Nov-22 05:33N 52°42' E 003°37'8 8.1
2014-Nov-22 04:33N 52°49' E 003°46'8 7.8
2014-Nov-22 03:33N 52°55' E 003°54'6 5.9
2014-Nov-22 02:30N 52°59' E 004°01'4 4.4
2014-Nov-22 01:32N 53°02' E 004°07'5 5.3
2014-Nov-22 00:33N 53°05' E 004°13'6 6.1
2014-Nov-21 23:34N 53°08' E 004°22'6 5.3
2014-Nov-21 22:22N 53°14' E 004°26'4 5.2
2014-Nov-21 21:30N 53°18' E 004°29'5 5.2
2014-Nov-21 20:34N 53°23' E 004°32'5 4.8
2014-Nov-21 19:34N 53°27' E 004°35'5 4.8
2014-Nov-21 18:34N 53°30' E 004°41'5 5.2
2014-Nov-21 17:33N 53°32' E 004°49'5 5.4
2014-Nov-21 16:34N 53°34' E 004°58'8 8.0
2014-Nov-21 15:34N 53°37' E 005°10'1010.0
2014-Nov-21 14:33N 53°40' E 005°26'1110.9
2014-Nov-21 13:34N 53°44' E 005°44'1111.1
2014-Nov-21 12:34N 53°47' E 006°02'1110.9
2014-Nov-21 11:33N 53°50' E 006°19'1010.5
2014-Nov-21 10:33N 53°52' E 006°37'29 9.3
2014-Nov-21 07:23N 53°59' E 007°26'7 8.7
2014-Nov-21 06:33N 53°60' E 007°38'9 8.8
2014-Nov-21 05:33N 53°53' E 007°47'1212.3
2014-Nov-21 04:34N 53°49' E 008°07'1716.7
2014-Nov-21 03:33N 53°38' E 008°27'4 4.3
2014-Nov-21 02:33N 53°35' E 008°32'0 0.0
2014-Nov-21 01:33N 53°35' E 008°32'0 0.0
2014-Nov-21 00:32N 53°35' E 008°32'0 0.0
2014-Nov-20 23:32N 53°35' E 008°32'0 0.0
2014-Nov-20 22:31N 53°35' E 008°32'0 0.0
2014-Nov-20 21:31N 53°35' E 008°32'0 0.0
2014-Nov-20 20:34N 53°35' E 008°32'0 0.0
2014-Nov-20 19:33N 53°35' E 008°32'0 0.0
2014-Nov-20 18:33N 53°35' E 008°32'0 0.0
2014-Nov-20 17:32N 53°35' E 008°32'0 0.0
2014-Nov-20 16:32N 53°35' E 008°32'0 0.0
2014-Nov-20 15:31N 53°35' E 008°32'0 0.0
2014-Nov-20 14:31N 53°35' E 008°32'0 0.0
2014-Nov-20 13:33N 53°35' E 008°32'0 0.0
2014-Nov-20 12:33N 53°35' E 008°32'1 1.3
2014-Nov-20 11:33N 53°36' E 008°31'1312.8
2014-Nov-20 10:33N 53°44' E 008°14'1413.6
2014-Nov-20 09:33N 53°52' E 007°56'1212.3
2014-Nov-20 08:33N 53°58' E 007°37'1515.6
2014-Nov-20 07:34N 54°12' E 007°25'1515.2
2014-Nov-20 06:33N 54°25' E 007°12'1515.3
2014-Nov-20 05:33N 54°38' E 007°00'1515.0
2014-Nov-20 04:33N 54°52' E 006°51'1514.8
2014-Nov-20 03:33N 55°06' E 006°43'1514.6
2014-Nov-20 02:33N 55°21' E 006°40'1514.6
2014-Nov-20 01:33N 55°36' E 006°38'18914.6
2014-Nov-19 12:32N 57°48' E 010°45'1818.3
2014-Nov-19 11:33N 57°36' E 011°11'1817.5
2014-Nov-19 10:33N 57°22' E 011°30'17414.5
2014-Nov-18 22:33N 54°28' E 011°38'1918.7
2014-Nov-18 21:33N 54°27' E 012°10'7819.5
2014-Nov-18 17:33N 55°06' E 014°07'2020.3
2014-Nov-18 16:33N 55°22' E 014°28'2020.1
2014-Nov-18 15:33N 55°33' E 014°58'2120.6
2014-Nov-18 14:33N 55°41' E 015°32'34018.5
2014-Nov-17 20:09N 59°35' E 023°12'1220.2
2014-Nov-17 19:33N 59°39' E 023°35'2020.3
2014-Nov-17 18:33N 59°45' E 024°13'2220.3
2014-Nov-17 17:30N 59°50' E 024°54'2920.3
2014-Nov-17 16:05N 59°56' E 025°51'1520.4
2014-Nov-17 15:22N 59°59' E 026°19'1620.0
2014-Nov-17 14:33N 60°00' E 026°51'10015.5
2014-Nov-17 08:04N 59°53' E 030°11'1 1.5
2014-Nov-17 07:32N 59°52' E 030°12'0 0.0
2014-Nov-17 06:31N 59°52' E 030°12'0 0.0
2014-Nov-16 22:19N 59°52' E 030°12'0 0.0
2014-Nov-16 21:31N 59°52' E 030°12'0 0.0
2014-Nov-16 20:30N 59°52' E 030°12'0 0.0
2014-Nov-16 19:24N 59°52' E 030°12'0 0.1
2014-Nov-16 18:23N 59°52' E 030°12'0 0.1
2014-Nov-16 17:23N 59°52' E 030°12'0 0.0
2014-Nov-16 16:28N 59°52' E 030°12'0 0.0
2014-Nov-16 15:28N 59°52' E 030°12'0 0.0
2014-Nov-16 14:18N 59°52' E 030°12'0 0.1
2014-Nov-16 13:33N 59°52' E 030°12'0 0.1
2014-Nov-16 12:33N 59°52' E 030°12'0 0.0
2014-Nov-16 11:32N 59°52' E 030°12'0 0.1
2014-Nov-16 10:32N 59°52' E 030°12'0 0.1
2014-Nov-16 08:28N 59°52' E 030°12'0 0.1
2014-Nov-16 07:34N 59°52' E 030°12'0 0.1
2014-Nov-16 06:33N 59°52' E 030°12'0 0.1
2014-Nov-16 05:33N 59°52' E 030°12'0 0.1
2014-Nov-16 04:26N 59°52' E 030°12'0 0.0
2014-Nov-16 03:32N 59°52' E 030°12'0 0.0
2014-Nov-16 02:22N 59°52' E 030°12'0 0.0
2014-Nov-16 01:30N 59°52' E 030°12'0 0.0
2014-Nov-16 00:33N 59°52' E 030°12'0 0.1
2014-Nov-15 23:33N 59°52' E 030°12'0 0.0
2014-Nov-15 21:23N 59°52' E 030°12'0 0.0
2014-Nov-15 20:32N 59°52' E 030°12'0 0.0
2014-Nov-15 19:13N 59°52' E 030°12'0 0.2
2014-Nov-15 18:31N 59°52' E 030°12'0 0.1
2014-Nov-15 17:33N 59°52' E 030°12'0 0.0
2014-Nov-15 16:30N 59°52' E 030°12'0 0.1
2014-Nov-15 15:33N 59°52' E 030°12'0 0.1
2014-Nov-15 14:32N 59°52' E 030°12'0 0.0
2014-Nov-15 13:32N 59°52' E 030°12'0 0.0
2014-Nov-15 12:31N 59°52' E 030°12'0 0.0
2014-Nov-15 11:31N 59°52' E 030°12'0 0.0
2014-Nov-15 10:33N 59°52' E 030°12'0 0.0
2014-Nov-15 09:33N 59°52' E 030°12'0 0.0
2014-Nov-15 08:33N 59°52' E 030°12'1 0.6
2014-Nov-15 06:10N 59°53' E 030°10'80 9.0
2014-Nov-14 21:20N 60°07' E 027°33'911.2
2014-Nov-14 20:33N 60°02' E 027°18'1110.8
2014-Nov-14 19:33N 59°58' E 026°58'1111.0
2014-Nov-14 18:33N 59°59' E 026°36'1211.6
2014-Nov-14 17:32N 59°56' E 026°14'1311.4
2014-Nov-14 16:25N 59°52' E 025°50'1011.1
2014-Nov-14 15:33N 59°50' E 025°31'1111.2
2014-Nov-14 14:33N 59°48' E 025°09'2211.1
2014-Nov-14 12:33N 59°44' E 024°26'1313.3
2014-Nov-14 11:33N 59°40' E 024°00'1413.8
2014-Nov-14 10:33N 59°35' E 023°35'35711.7
2014-Nov-13 04:06N 55°35' E 015°20'713.1
2014-Nov-13 03:33N 55°32' E 015°09'1413.3
2014-Nov-13 02:31N 55°26' E 014°47'1312.9
2014-Nov-13 01:31N 55°17' E 014°31'1313.5
2014-Nov-13 00:33N 55°07' E 014°17'1312.9
2014-Nov-12 23:32N 54°59' E 013°58'4013.2
2014-Nov-12 20:30N 54°47' E 012°52'1513.0
2014-Nov-12 19:23N 54°41' E 012°29'1214.0
2014-Nov-12 18:33N 54°33' E 012°15'1514.0
2014-Nov-12 17:30N 54°25' E 011°54'  
Track history (hours):
 
Tides and Currents Weather Stations Pressure Air Temp Water Temp Dewpoint Dewpoint Depression Visibility Wind Speed Wind Dir Waves Ship Positions

MSC Nuria

Last reported at 2014-Nov-22 16:34 UTC. Time now 2014-Nov-22 16:42 UTC.
Position N 51°25' E 003°42'.

Length 275 m; draft 10 m.

Type: Ship (hazmat cat A). MMSI: 370272977.

Date/timePositionNaut miles runAvg speedWind from/ knotsBaromVisibWave heightAir tempDewpointWater temp
2014-Nov-22 16:34N 51°25' E 003°42'8 8.4
2014-Nov-22 15:33N 51°25' E 003°29'1515.3
2014-Nov-22 14:34N 51°24' E 003°04'1212.1
2014-Nov-22 13:34N 51°36' E 003°10'1211.7
2014-Nov-22 12:33N 51°47' E 003°15'1312.6
2014-Nov-22 11:33N 51°59' E 003°20'1110.8
2014-Nov-22 10:33N 52°10' E 003°23'6 5.9
2014-Nov-22 09:33N 52°16' E 003°25'7 6.2
2014-Nov-22 08:25N 52°23' E 003°26'6 6.1
2014-Nov-22 07:29N 52°28' E 003°28'7 7.8
2014-Nov-22 06:33N 52°36' E 003°30'8 8.3
2014-Nov-22 05:33N 52°42' E 003°37'8 8.1
2014-Nov-22 04:33N 52°49' E 003°46'8 7.8
2014-Nov-22 03:33N 52°55' E 003°54'6 5.9
2014-Nov-22 02:30N 52°59' E 004°01'4 4.4
2014-Nov-22 01:32N 53°02' E 004°07'5 5.3
2014-Nov-22 00:33N 53°05' E 004°13'6 6.1
2014-Nov-21 23:34N 53°08' E 004°22'6 5.3
2014-Nov-21 22:22N 53°14' E 004°26'4 5.2
2014-Nov-21 21:30N 53°18' E 004°29'5 5.2
2014-Nov-21 20:34N 53°23' E 004°32'5 4.8
2014-Nov-21 19:34N 53°27' E 004°35'5 4.8
2014-Nov-21 18:34N 53°30' E 004°41'5 5.2
2014-Nov-21 17:33N 53°32' E 004°49'5 5.4
2014-Nov-21 16:34N 53°34' E 004°58'8 8.0
2014-Nov-21 15:34N 53°37' E 005°10'1010.0
2014-Nov-21 14:33N 53°40' E 005°26'1110.9
2014-Nov-21 13:34N 53°44' E 005°44'1111.1
2014-Nov-21 12:34N 53°47' E 006°02'1110.9
2014-Nov-21 11:33N 53°50' E 006°19'1010.5
2014-Nov-21 10:33N 53°52' E 006°37'29 9.3
2014-Nov-21 07:23N 53°59' E 007°26'7 8.7
2014-Nov-21 06:33N 53°60' E 007°38'9 8.8
2014-Nov-21 05:33N 53°53' E 007°47'1212.3
2014-Nov-21 04:34N 53°49' E 008°07'1716.7
2014-Nov-21 03:33N 53°38' E 008°27'4 4.3
2014-Nov-21 02:33N 53°35' E 008°32'0 0.0
2014-Nov-21 01:33N 53°35' E 008°32'0 0.0
2014-Nov-21 00:32N 53°35' E 008°32'0 0.0
2014-Nov-20 23:32N 53°35' E 008°32'0 0.0
2014-Nov-20 22:31N 53°35' E 008°32'0 0.0
2014-Nov-20 21:31N 53°35' E 008°32'0 0.0
2014-Nov-20 20:34N 53°35' E 008°32'0 0.0
2014-Nov-20 19:33N 53°35' E 008°32'0 0.0
2014-Nov-20 18:33N 53°35' E 008°32'0 0.0
2014-Nov-20 17:32N 53°35' E 008°32'0 0.0
2014-Nov-20 16:32N 53°35' E 008°32'0 0.0
2014-Nov-20 15:31N 53°35' E 008°32'0 0.0
2014-Nov-20 14:31N 53°35' E 008°32'0 0.0
2014-Nov-20 13:33N 53°35' E 008°32'0 0.0
2014-Nov-20 12:33N 53°35' E 008°32'1 1.3
2014-Nov-20 11:33N 53°36' E 008°31'1312.8
2014-Nov-20 10:33N 53°44' E 008°14'1413.6
2014-Nov-20 09:33N 53°52' E 007°56'1212.3
2014-Nov-20 08:33N 53°58' E 007°37'1515.6
2014-Nov-20 07:34N 54°12' E 007°25'1515.2
2014-Nov-20 06:33N 54°25' E 007°12'1515.3
2014-Nov-20 05:33N 54°38' E 007°00'1515.0
2014-Nov-20 04:33N 54°52' E 006°51'1514.8
2014-Nov-20 03:33N 55°06' E 006°43'1514.6
2014-Nov-20 02:33N 55°21' E 006°40'1514.6
2014-Nov-20 01:33N 55°36' E 006°38'18914.6
2014-Nov-19 12:32N 57°48' E 010°45'1818.3
2014-Nov-19 11:33N 57°36' E 011°11'1817.5
2014-Nov-19 10:33N 57°22' E 011°30'17414.5
2014-Nov-18 22:33N 54°28' E 011°38'1918.7
2014-Nov-18 21:33N 54°27' E 012°10'7819.5
2014-Nov-18 17:33N 55°06' E 014°07'2020.3
2014-Nov-18 16:33N 55°22' E 014°28'2020.1
2014-Nov-18 15:33N 55°33' E 014°58'2120.6
2014-Nov-18 14:33N 55°41' E 015°32'34018.5
2014-Nov-17 20:09N 59°35' E 023°12'1220.2
2014-Nov-17 19:33N 59°39' E 023°35'2020.3
2014-Nov-17 18:33N 59°45' E 024°13'2220.3
2014-Nov-17 17:30N 59°50' E 024°54'2920.3
2014-Nov-17 16:05N 59°56' E 025°51'1520.4
2014-Nov-17 15:22N 59°59' E 026°19'1620.0
2014-Nov-17 14:33N 60°00' E 026°51'10015.5
2014-Nov-17 08:04N 59°53' E 030°11'1 1.5
2014-Nov-17 07:32N 59°52' E 030°12'0 0.0
2014-Nov-17 06:31N 59°52' E 030°12'0 0.0
2014-Nov-16 22:19N 59°52' E 030°12'0 0.0
2014-Nov-16 21:31N 59°52' E 030°12'0 0.0
2014-Nov-16 20:30N 59°52' E 030°12'0 0.0
2014-Nov-16 19:24N 59°52' E 030°12'0 0.1
2014-Nov-16 18:23N 59°52' E 030°12'0 0.1
2014-Nov-16 17:23N 59°52' E 030°12'0 0.0
2014-Nov-16 16:28N 59°52' E 030°12'0 0.0
2014-Nov-16 15:28N 59°52' E 030°12'0 0.0
2014-Nov-16 14:18N 59°52' E 030°12'0 0.1
2014-Nov-16 13:33N 59°52' E 030°12'0 0.1
2014-Nov-16 12:33N 59°52' E 030°12'0 0.0
2014-Nov-16 11:32N 59°52' E 030°12'0 0.1
2014-Nov-16 10:32N 59°52' E 030°12'0 0.1
2014-Nov-16 08:28N 59°52' E 030°12'0 0.1
2014-Nov-16 07:34N 59°52' E 030°12'0 0.1
2014-Nov-16 06:33N 59°52' E 030°12'0 0.1
2014-Nov-16 05:33N 59°52' E 030°12'0 0.1
2014-Nov-16 04:26N 59°52' E 030°12'0 0.0
2014-Nov-16 03:32N 59°52' E 030°12'0 0.0
2014-Nov-16 02:22N 59°52' E 030°12'0 0.0
2014-Nov-16 01:30N 59°52' E 030°12'0 0.0
2014-Nov-16 00:33N 59°52' E 030°12'0 0.1
2014-Nov-15 23:33N 59°52' E 030°12'0 0.0
2014-Nov-15 21:23N 59°52' E 030°12'0 0.0
2014-Nov-15 20:32N 59°52' E 030°12'0 0.0
2014-Nov-15 19:13N 59°52' E 030°12'0 0.2
2014-Nov-15 18:31N 59°52' E 030°12'0 0.1
2014-Nov-15 17:33N 59°52' E 030°12'0 0.0
2014-Nov-15 16:30N 59°52' E 030°12'0 0.1
2014-Nov-15 15:33N 59°52' E 030°12'0 0.1
2014-Nov-15 14:32N 59°52' E 030°12'0 0.0
2014-Nov-15 13:32N 59°52' E 030°12'0 0.0
2014-Nov-15 12:31N 59°52' E 030°12'0 0.0
2014-Nov-15 11:31N 59°52' E 030°12'0 0.0
2014-Nov-15 10:33N 59°52' E 030°12'0 0.0
2014-Nov-15 09:33N 59°52' E 030°12'0 0.0
2014-Nov-15 08:33N 59°52' E 030°12'1 0.6
2014-Nov-15 06:10N 59°53' E 030°10'80 9.0
2014-Nov-14 21:20N 60°07' E 027°33'911.2
2014-Nov-14 20:33N 60°02' E 027°18'1110.8
2014-Nov-14 19:33N 59°58' E 026°58'1111.0
2014-Nov-14 18:33N 59°59' E 026°36'1211.6
2014-Nov-14 17:32N 59°56' E 026°14'1311.4
2014-Nov-14 16:25N 59°52' E 025°50'1011.1
2014-Nov-14 15:33N 59°50' E 025°31'1111.2
2014-Nov-14 14:33N 59°48' E 025°09'2211.1
2014-Nov-14 12:33N 59°44' E 024°26'1313.3
2014-Nov-14 11:33N 59°40' E 024°00'1413.8
2014-Nov-14 10:33N 59°35' E 023°35'35711.7
2014-Nov-13 04:06N 55°35' E 015°20'713.1
2014-Nov-13 03:33N 55°32' E 015°09'1413.3
2014-Nov-13 02:31N 55°26' E 014°47'1312.9
2014-Nov-13 01:31N 55°17' E 014°31'1313.5
2014-Nov-13 00:33N 55°07' E 014°17'1312.9
2014-Nov-12 23:32N 54°59' E 013°58'4013.2
2014-Nov-12 20:30N 54°47' E 012°52'1513.0
2014-Nov-12 19:23N 54°41' E 012°29'1214.0
2014-Nov-12 18:33N 54°33' E 012°15'1514.0
2014-Nov-12 17:30N 54°25' E 011°54'  

Dump ship's entire track history